LiveATC.Net - Listen to live air traffic control over the Internet! Contact for advertising information

ICAO: EIKN  IATA: NOC   Airport: Ireland West Airport Knock
City: Charlestown
Country: Ireland   Continent: Europe
EIKN METAR Weather: EIKN 280900Z 23017KT 210V270 9999 -RA SCT012 BKN020 OVC050 06/05 Q0999 NOSIG
EIKN Flight Activity (FlightAware)
EIKN Gnd/Twr/App
Feed Status: UP   Listeners: 9
Listen right in your browser - requires Flash (in browser, requires Flash)
Click here to listen with your own player (launches your MP3 player)
EIKN Gnd/Twr/App Audio Archives
Connaught Ground121.900
Connaught Tower130.700
Shannon Low Level119.075

Special Note: Sponsored by CAC


Unauthorized use prohibited. See Terms of Service

Find LiveATC Audio Streams

Airport/ARTCC Code

(e.g., 124.400, 128.75)
Site-wide search

Browse LiveATC Feeds
LiveATC Coverage Map
Top 50 LiveATC Feeds
Bad Weather Areas

Offer a LiveATC Feed
Press Inquiries

LiveATC on iPhone
LiveATC on Android

Windows Phone
Windows 8/10

LiveATC Mobile
(Mobile browser)

ATC Audio Archives
Interesting Recordings

LiveATC Forums

Home Page
Make a Donation
LiveATC Bookstore

Terms of Use
Privacy Policy

ATC/Radar Sites
U.S. ARTCC Freqs
Canadian Air Freqs


FAA Airport Status
Nat'l Airspace Status
Arrival Demand Charts

Server Software By:

Please make a donation to help us keep growing!